Terminal Aerodrome Forecast
Issued by NWS Sterling, VA

Current Version | Previous Version | Text Only | Print | Product List | Glossary Off
Versions: 1 2 3 4 5 6 7 8 9 10 11 12 13 14 15 16 17 18 19 20 21 22 23 24 25 26

000
FTUS41 KLWX 151200 AAC
TAFDCA
TAF AMD
KDCA 151252Z 1513/1612 VRB13G25KT 1SM SHRA OVC009 WS020/19055KT
     FM151310 19013G25KT 1SM SHRA OVC009 WS020/19055KT
     FM151350 18013KT 4SM SHRA OVC015
     FM151800 23010KT 5SM SHRA OVC025
     FM152000 31016G26KT 5SM -SHRA OVC020
     FM152200 32018G29KT 5SM -SHRA OVC025
     FM160000 33019G30KT P6SM SCT025 OVC035
     FM160400 33020G29KT P6SM FEW040 SCT130
     FM161000 33014KT P6SM SKC=

USA.gov is the U.S. government's official web portal to all federal, state and local government web resources and services.